sensor_id;sensor_type;location;lat;lon;timestamp;temperature;humidity
12957;DHT22;6543;48.836;10.092;2024-01-30T00:01:06;3.60;99.90
12957;DHT22;6543;48.836;10.092;2024-01-30T00:03:32;5.80;99.90
12957;DHT22;6543;48.836;10.092;2024-01-30T00:06:02;3.20;99.90
12957;DHT22;6543;48.836;10.092;2024-01-30T00:08:29;3.30;99.90
12957;DHT22;6543;48.836;10.092;2024-01-30T00:10:56;3.20;99.90
12957;DHT22;6543;48.836;10.092;2024-01-30T00:13:23;5.00;99.90
12957;DHT22;6543;48.836;10.092;2024-01-30T00:15:50;3.00;99.90
12957;DHT22;6543;48.836;10.092;2024-01-30T00:18:17;2.80;99.90
12957;DHT22;6543;48.836;10.092;2024-01-30T00:20:44;2.90;99.90
12957;DHT22;6543;48.836;10.092;2024-01-30T00:23:12;3.00;99.90
12957;DHT22;6543;48.836;10.092;2024-01-30T00:25:39;5.80;99.90
12957;DHT22;6543;48.836;10.092;2024-01-30T00:28:06;3.00;99.90
12957;DHT22;6543;48.836;10.092;2024-01-30T00:30:33;5.20;99.90
12957;DHT22;6543;48.836;10.092;2024-01-30T00:33:00;4.70;99.90
12957;DHT22;6543;48.836;10.092;2024-01-30T00:35:27;3.70;99.90
12957;DHT22;6543;48.836;10.092;2024-01-30T00:37:54;3.10;99.90
12957;DHT22;6543;48.836;10.092;2024-01-30T00:40:23;4.70;99.90
12957;DHT22;6543;48.836;10.092;2024-01-30T00:42:50;4.60;99.90
12957;DHT22;6543;48.836;10.092;2024-01-30T00:45:17;2.50;99.90
12957;DHT22;6543;48.836;10.092;2024-01-30T00:47:44;3.50;99.90
12957;DHT22;6543;48.836;10.092;2024-01-30T00:50:11;2.90;99.90
12957;DHT22;6543;48.836;10.092;2024-01-30T00:52:38;4.60;99.90
12957;DHT22;6543;48.836;10.092;2024-01-30T00:55:07;2.90;99.90
12957;DHT22;6543;48.836;10.092;2024-01-30T00:57:35;5.80;99.90
12957;DHT22;6543;48.836;10.092;2024-01-30T01:00:02;5.80;99.90
12957;DHT22;6543;48.836;10.092;2024-01-30T01:02:31;2.80;99.90
12957;DHT22;6543;48.836;10.092;2024-01-30T01:04:58;4.70;99.90
12957;DHT22;6543;48.836;10.092;2024-01-30T01:07:25;5.20;99.90
12957;DHT22;6543;48.836;10.092;2024-01-30T01:09:52;2.30;99.90
12957;DHT22;6543;48.836;10.092;2024-01-30T01:12:19;2.30;99.90
12957;DHT22;6543;48.836;10.092;2024-01-30T01:14:47;2.30;99.90
12957;DHT22;6543;48.836;10.092;2024-01-30T01:17:14;1.90;99.90
12957;DHT22;6543;48.836;10.092;2024-01-30T01:19:41;0.90;99.90
12957;DHT22;6543;48.836;10.092;2024-01-30T01:22:07;4.90;99.90
12957;DHT22;6543;48.836;10.092;2024-01-30T01:24:35;2.30;99.90
12957;DHT22;6543;48.836;10.092;2024-01-30T01:27:02;2.40;99.90
12957;DHT22;6543;48.836;10.092;2024-01-30T01:29:29;2.30;99.90
12957;DHT22;6543;48.836;10.092;2024-01-30T01:31:58;4.70;99.90
12957;DHT22;6543;48.836;10.092;2024-01-30T01:34:25;2.30;99.90
12957;DHT22;6543;48.836;10.092;2024-01-30T01:36:51;2.10;99.90
12957;DHT22;6543;48.836;10.092;2024-01-30T01:39:21;2.30;99.90
12957;DHT22;6543;48.836;10.092;2024-01-30T01:41:49;2.20;99.90
12957;DHT22;6543;48.836;10.092;2024-01-30T01:44:17;2.20;99.90
12957;DHT22;6543;48.836;10.092;2024-01-30T01:46:44;2.20;99.90
12957;DHT22;6543;48.836;10.092;2024-01-30T01:49:13;2.20;99.90
12957;DHT22;6543;48.836;10.092;2024-01-30T01:51:41;5.00;99.90
12957;DHT22;6543;48.836;10.092;2024-01-30T01:54:10;2.30;99.90
12957;DHT22;6543;48.836;10.092;2024-01-30T01:56:38;2.20;99.90
12957;DHT22;6543;48.836;10.092;2024-01-30T01:59:07;3.70;99.90
12957;DHT22;6543;48.836;10.092;2024-01-30T02:01:35;2.20;99.90
12957;DHT22;6543;48.836;10.092;2024-01-30T02:04:03;2.10;99.90
12957;DHT22;6543;48.836;10.092;2024-01-30T02:06:32;2.10;99.90
12957;DHT22;6543;48.836;10.092;2024-01-30T02:08:59;4.10;99.90
12957;DHT22;6543;48.836;10.092;2024-01-30T02:11:25;2.00;99.90
12957;DHT22;6543;48.836;10.092;2024-01-30T02:13:53;2.00;99.90
12957;DHT22;6543;48.836;10.092;2024-01-30T02:16:19;1.90;99.90
12957;DHT22;6543;48.836;10.092;2024-01-30T02:18:46;1.90;99.90
12957;DHT22;6543;48.836;10.092;2024-01-30T02:21:15;2.10;99.90
12957;DHT22;6543;48.836;10.092;2024-01-30T02:23:43;2.00;99.90
12957;DHT22;6543;48.836;10.092;2024-01-30T02:26:10;1.70;99.90
12957;DHT22;6543;48.836;10.092;2024-01-30T02:28:38;3.80;99.90
12957;DHT22;6543;48.836;10.092;2024-01-30T02:31:05;3.10;99.90
12957;DHT22;6543;48.836;10.092;2024-01-30T02:33:31;1.70;99.90
12957;DHT22;6543;48.836;10.092;2024-01-30T02:35:58;1.70;99.90
12957;DHT22;6543;48.836;10.092;2024-01-30T02:38:26;1.70;99.90
12957;DHT22;6543;48.836;10.092;2024-01-30T02:40:54;1.40;99.90
12957;DHT22;6543;48.836;10.092;2024-01-30T02:43:22;1.90;99.90
12957;DHT22;6543;48.836;10.092;2024-01-30T02:45:49;3.80;99.90
12957;DHT22;6543;48.836;10.092;2024-01-30T02:48:16;1.50;99.90
12957;DHT22;6543;48.836;10.092;2024-01-30T02:50:43;1.50;99.90
12957;DHT22;6543;48.836;10.092;2024-01-30T02:53:11;1.40;99.90
12957;DHT22;6543;48.836;10.092;2024-01-30T02:55:39;1.30;99.90
12957;DHT22;6543;48.836;10.092;2024-01-30T02:58:06;1.20;99.90
12957;DHT22;6543;48.836;10.092;2024-01-30T03:00:33;1.70;99.90
12957;DHT22;6543;48.836;10.092;2024-01-30T03:03:00;1.50;99.90
12957;DHT22;6543;48.836;10.092;2024-01-30T03:05:27;1.00;99.90
12957;DHT22;6543;48.836;10.092;2024-01-30T03:07:54;2.60;99.90
12957;DHT22;6543;48.836;10.092;2024-01-30T03:10:21;0.90;99.90
12957;DHT22;6543;48.836;10.092;2024-01-30T03:12:49;0.80;99.90
12957;DHT22;6543;48.836;10.092;2024-01-30T03:15:16;0.90;99.90
12957;DHT22;6543;48.836;10.092;2024-01-30T03:17:43;1.80;99.90
12957;DHT22;6543;48.836;10.092;2024-01-30T03:20:10;1.00;99.90
12957;DHT22;6543;48.836;10.092;2024-01-30T03:22:37;1.00;99.90
12957;DHT22;6543;48.836;10.092;2024-01-30T03:25:05;1.00;99.90
12957;DHT22;6543;48.836;10.092;2024-01-30T03:27:32;1.00;99.90
12957;DHT22;6543;48.836;10.092;2024-01-30T03:30:00;1.00;99.90
12957;DHT22;6543;48.836;10.092;2024-01-30T03:32:27;2.50;99.90
12957;DHT22;6543;48.836;10.092;2024-01-30T03:34:54;1.00;99.90
12957;DHT22;6543;48.836;10.092;2024-01-30T03:37:21;1.00;99.90
12957;DHT22;6543;48.836;10.092;2024-01-30T03:39:48;1.00;99.90
12957;DHT22;6543;48.836;10.092;2024-01-30T03:42:15;0.90;99.90
12957;DHT22;6543;48.836;10.092;2024-01-30T03:44:42;1.00;99.90
12957;DHT22;6543;48.836;10.092;2024-01-30T03:47:10;1.60;99.90
12957;DHT22;6543;48.836;10.092;2024-01-30T03:49:37;1.00;99.90
12957;DHT22;6543;48.836;10.092;2024-01-30T03:52:04;1.00;99.90
12957;DHT22;6543;48.836;10.092;2024-01-30T03:54:31;1.00;99.90
12957;DHT22;6543;48.836;10.092;2024-01-30T03:56:57;0.90;99.90
12957;DHT22;6543;48.836;10.092;2024-01-30T03:59:24;2.40;99.90
12957;DHT22;6543;48.836;10.092;2024-01-30T04:01:51;0.80;99.90
12957;DHT22;6543;48.836;10.092;2024-01-30T04:04:19;0.70;99.90
12957;DHT22;6543;48.836;10.092;2024-01-30T04:06:46;0.80;99.90
12957;DHT22;6543;48.836;10.092;2024-01-30T04:09:13;2.50;99.90
12957;DHT22;6543;48.836;10.092;2024-01-30T04:11:40;0.60;99.90
12957;DHT22;6543;48.836;10.092;2024-01-30T04:14:07;0.70;99.90
12957;DHT22;6543;48.836;10.092;2024-01-30T04:16:34;0.70;99.90
12957;DHT22;6543;48.836;10.092;2024-01-30T04:19:01;0.70;99.90
12957;DHT22;6543;48.836;10.092;2024-01-30T04:21:29;0.70;99.90
12957;DHT22;6543;48.836;10.092;2024-01-30T04:23:56;0.60;99.90
12957;DHT22;6543;48.836;10.092;2024-01-30T04:26:23;0.50;99.90
12957;DHT22;6543;48.836;10.092;2024-01-30T04:28:50;1.40;99.90
12957;DHT22;6543;48.836;10.092;2024-01-30T04:31:17;0.20;99.90
12957;DHT22;6543;48.836;10.092;2024-01-30T04:33:43;0.20;99.90
12957;DHT22;6543;48.836;10.092;2024-01-30T04:36:10;0.20;99.90
12957;DHT22;6543;48.836;10.092;2024-01-30T04:38:38;0.10;99.90
12957;DHT22;6543;48.836;10.092;2024-01-30T04:41:05;0.20;99.90
12957;DHT22;6543;48.836;10.092;2024-01-30T04:43:32;0.20;99.90
12957;DHT22;6543;48.836;10.092;2024-01-30T04:45:59;0.20;99.90
12957;DHT22;6543;48.836;10.092;2024-01-30T04:48:25;0.20;99.90
12957;DHT22;6543;48.836;10.092;2024-01-30T04:50:52;-1.30;99.90
12957;DHT22;6543;48.836;10.092;2024-01-30T04:53:19;0.30;99.90
12957;DHT22;6543;48.836;10.092;2024-01-30T04:55:48;1.70;99.90
12957;DHT22;6543;48.836;10.092;2024-01-30T04:58:14;0.20;99.90
12957;DHT22;6543;48.836;10.092;2024-01-30T05:00:41;0.30;99.90
12957;DHT22;6543;48.836;10.092;2024-01-30T05:03:08;0.20;99.90
12957;DHT22;6543;48.836;10.092;2024-01-30T05:05:35;2.10;99.90
12957;DHT22;6543;48.836;10.092;2024-01-30T05:08:02;0.20;99.90
12957;DHT22;6543;48.836;10.092;2024-01-30T05:10:28;0.30;99.90
12957;DHT22;6543;48.836;10.092;2024-01-30T05:12:57;-1.50;99.90
12957;DHT22;6543;48.836;10.092;2024-01-30T05:15:23;0.40;99.90
12957;DHT22;6543;48.836;10.092;2024-01-30T05:17:50;0.50;99.90
12957;DHT22;6543;48.836;10.092;2024-01-30T05:20:17;0.50;99.90
12957;DHT22;6543;48.836;10.092;2024-01-30T05:22:44;0.40;99.90
12957;DHT22;6543;48.836;10.092;2024-01-30T05:25:12;0.50;99.90
12957;DHT22;6543;48.836;10.092;2024-01-30T05:27:38;0.40;99.90
12957;DHT22;6543;48.836;10.092;2024-01-30T05:30:08;0.80;99.90
12957;DHT22;6543;48.836;10.092;2024-01-30T05:32:34;0.30;99.90
12957;DHT22;6543;48.836;10.092;2024-01-30T05:35:01;1.30;99.90
12957;DHT22;6543;48.836;10.092;2024-01-30T05:37:28;0.20;99.90
12957;DHT22;6543;48.836;10.092;2024-01-30T05:39:55;0.20;99.90
12957;DHT22;6543;48.836;10.092;2024-01-30T05:42:23;0.20;99.90
12957;DHT22;6543;48.836;10.092;2024-01-30T05:44:50;0.10;99.90
12957;DHT22;6543;48.836;10.092;2024-01-30T05:47:18;0.20;99.90
12957;DHT22;6543;48.836;10.092;2024-01-30T05:49:45;1.80;99.90
12957;DHT22;6543;48.836;10.092;2024-01-30T05:52:12;0.20;99.90
12957;DHT22;6543;48.836;10.092;2024-01-30T05:54:40;0.20;99.90
12957;DHT22;6543;48.836;10.092;2024-01-30T05:57:07;0.20;99.90
12957;DHT22;6543;48.836;10.092;2024-01-30T05:59:34;1.70;99.90
12957;DHT22;6543;48.836;10.092;2024-01-30T06:02:01;0.30;99.90
12957;DHT22;6543;48.836;10.092;2024-01-30T06:04:30;0.40;99.90
12957;DHT22;6543;48.836;10.092;2024-01-30T06:06:56;0.40;99.90
12957;DHT22;6543;48.836;10.092;2024-01-30T06:09:23;0.50;99.90
12957;DHT22;6543;48.836;10.092;2024-01-30T06:11:50;0.50;99.90
12957;DHT22;6543;48.836;10.092;2024-01-30T06:14:17;0.30;99.90
12957;DHT22;6543;48.836;10.092;2024-01-30T06:16:44;0.90;99.90
12957;DHT22;6543;48.836;10.092;2024-01-30T06:19:10;0.30;99.90
12957;DHT22;6543;48.836;10.092;2024-01-30T06:21:39;2.10;99.90
12957;DHT22;6543;48.836;10.092;2024-01-30T06:24:06;0.40;99.90
12957;DHT22;6543;48.836;10.092;2024-01-30T06:26:34;0.50;99.90
12957;DHT22;6543;48.836;10.092;2024-01-30T06:29:00;0.50;99.90
12957;DHT22;6543;48.836;10.092;2024-01-30T06:31:27;0.40;99.90
12957;DHT22;6543;48.836;10.092;2024-01-30T06:33:54;0.40;99.90
12957;DHT22;6543;48.836;10.092;2024-01-30T06:36:21;0.50;99.90
12957;DHT22;6543;48.836;10.092;2024-01-30T06:38:49;0.70;99.90
12957;DHT22;6543;48.836;10.092;2024-01-30T06:41:16;1.30;99.90
12957;DHT22;6543;48.836;10.092;2024-01-30T06:43:42;0.70;99.90
12957;DHT22;6543;48.836;10.092;2024-01-30T06:46:10;2.30;99.90
12957;DHT22;6543;48.836;10.092;2024-01-30T06:48:38;1.90;99.90
12957;DHT22;6543;48.836;10.092;2024-01-30T06:51:06;0.80;99.90
12957;DHT22;6543;48.836;10.092;2024-01-30T06:53:33;0.90;99.90
12957;DHT22;6543;48.836;10.092;2024-01-30T06:56:01;0.90;99.90
12957;DHT22;6543;48.836;10.092;2024-01-30T06:58:28;1.00;99.90
12957;DHT22;6543;48.836;10.092;2024-01-30T07:00:56;3.20;99.90
12957;DHT22;6543;48.836;10.092;2024-01-30T07:03:22;1.00;99.90
12957;DHT22;6543;48.836;10.092;2024-01-30T07:05:49;0.90;99.90
12957;DHT22;6543;48.836;10.092;2024-01-30T07:08:17;0.90;99.90
12957;DHT22;6543;48.836;10.092;2024-01-30T07:10:44;1.00;99.90
12957;DHT22;6543;48.836;10.092;2024-01-30T07:13:12;0.90;99.90
12957;DHT22;6543;48.836;10.092;2024-01-30T07:15:41;1.00;99.90
12957;DHT22;6543;48.836;10.092;2024-01-30T07:18:08;1.00;99.90
12957;DHT22;6543;48.836;10.092;2024-01-30T07:20:36;2.60;99.90
12957;DHT22;6543;48.836;10.092;2024-01-30T07:23:03;1.80;99.90
12957;DHT22;6543;48.836;10.092;2024-01-30T07:25:31;1.20;99.90
12957;DHT22;6543;48.836;10.092;2024-01-30T07:28:02;3.20;99.90
12957;DHT22;6543;48.836;10.092;2024-01-30T07:30:30;1.30;99.90
12957;DHT22;6543;48.836;10.092;2024-01-30T07:32:57;1.40;99.90
12957;DHT22;6543;48.836;10.092;2024-01-30T07:35:24;1.50;99.90
12957;DHT22;6543;48.836;10.092;2024-01-30T07:37:51;4.00;99.90
12957;DHT22;6543;48.836;10.092;2024-01-30T07:40:18;2.20;99.90
12957;DHT22;6543;48.836;10.092;2024-01-30T07:42:45;1.90;99.90
12957;DHT22;6543;48.836;10.092;2024-01-30T07:45:12;1.90;99.90
12957;DHT22;6543;48.836;10.092;2024-01-30T07:47:40;2.10;99.90
12957;DHT22;6543;48.836;10.092;2024-01-30T07:50:08;2.20;99.90
12957;DHT22;6543;48.836;10.092;2024-01-30T07:52:35;2.30;99.90
12957;DHT22;6543;48.836;10.092;2024-01-30T07:55:02;2.90;99.90
12957;DHT22;6543;48.836;10.092;2024-01-30T07:57:30;2.60;99.90
12957;DHT22;6543;48.836;10.092;2024-01-30T07:59:57;2.60;99.90
12957;DHT22;6543;48.836;10.092;2024-01-30T08:02:33;2.70;99.90
12957;DHT22;6543;48.836;10.092;2024-01-30T08:05:01;2.80;99.90
12957;DHT22;6543;48.836;10.092;2024-01-30T08:07:28;3.00;99.90
12957;DHT22;6543;48.836;10.092;2024-01-30T08:09:56;3.40;99.90
12957;DHT22;6543;48.836;10.092;2024-01-30T08:12:23;5.00;99.90
12957;DHT22;6543;48.836;10.092;2024-01-30T08:14:50;3.40;99.90
12957;DHT22;6543;48.836;10.092;2024-01-30T08:17:16;3.50;99.90
12957;DHT22;6543;48.836;10.092;2024-01-30T08:19:47;4.70;99.90
12957;DHT22;6543;48.836;10.092;2024-01-30T08:22:15;4.40;99.90
12957;DHT22;6543;48.836;10.092;2024-01-30T08:24:42;3.80;99.90
12957;DHT22;6543;48.836;10.092;2024-01-30T08:27:09;3.90;99.90
12957;DHT22;6543;48.836;10.092;2024-01-30T08:29:36;5.20;99.90
12957;DHT22;6543;48.836;10.092;2024-01-30T08:32:04;4.00;99.90
12957;DHT22;6543;48.836;10.092;2024-01-30T08:34:31;4.20;99.90
12957;DHT22;6543;48.836;10.092;2024-01-30T08:36:58;4.30;99.90
12957;DHT22;6543;48.836;10.092;2024-01-30T08:39:26;5.00;99.90
12957;DHT22;6543;48.836;10.092;2024-01-30T08:41:53;4.50;99.90
12957;DHT22;6543;48.836;10.092;2024-01-30T08:44:20;5.80;99.90
12957;DHT22;6543;48.836;10.092;2024-01-30T08:46:47;5.50;99.90
12957;DHT22;6543;48.836;10.092;2024-01-30T08:49:16;4.70;99.90
12957;DHT22;6543;48.836;10.092;2024-01-30T08:51:43;4.80;99.90
12957;DHT22;6543;48.836;10.092;2024-01-30T08:54:10;4.90;99.90
12957;DHT22;6543;48.836;10.092;2024-01-30T08:56:38;4.90;99.90
12957;DHT22;6543;48.836;10.092;2024-01-30T08:59:05;4.90;99.90
12957;DHT22;6543;48.836;10.092;2024-01-30T09:01:32;6.20;99.90
12957;DHT22;6543;48.836;10.092;2024-01-30T09:03:58;5.10;99.90
12957;DHT22;6543;48.836;10.092;2024-01-30T09:06:25;5.30;99.90
12957;DHT22;6543;48.836;10.092;2024-01-30T09:08:57;4.90;99.90
12957;DHT22;6543;48.836;10.092;2024-01-30T09:11:24;4.90;99.90
12957;DHT22;6543;48.836;10.092;2024-01-30T09:13:52;4.90;99.90
12957;DHT22;6543;48.836;10.092;2024-01-30T09:16:19;5.60;99.90
12957;DHT22;6543;48.836;10.092;2024-01-30T09:18:46;5.10;99.90
12957;DHT22;6543;48.836;10.092;2024-01-30T09:21:13;6.90;99.90
12957;DHT22;6543;48.836;10.092;2024-01-30T09:23:39;6.30;99.90
12957;DHT22;6543;48.836;10.092;2024-01-30T09:26:06;5.40;99.90
12957;DHT22;6543;48.836;10.092;2024-01-30T09:28:33;5.50;99.90
12957;DHT22;6543;48.836;10.092;2024-01-30T09:31:01;7.00;99.90
12957;DHT22;6543;48.836;10.092;2024-01-30T09:33:29;5.60;99.90
12957;DHT22;6543;48.836;10.092;2024-01-30T09:35:55;6.80;99.90
12957;DHT22;6543;48.836;10.092;2024-01-30T09:38:22;5.90;99.90
12957;DHT22;6543;48.836;10.092;2024-01-30T09:40:54;5.90;99.90
12957;DHT22;6543;48.836;10.092;2024-01-30T09:43:22;6.00;99.90
12957;DHT22;6543;48.836;10.092;2024-01-30T09:45:50;6.20;99.90
12957;DHT22;6543;48.836;10.092;2024-01-30T09:48:19;6.10;99.90
12957;DHT22;6543;48.836;10.092;2024-01-30T09:50:46;6.80;99.90
12957;DHT22;6543;48.836;10.092;2024-01-30T09:53:13;7.50;99.90
12957;DHT22;6543;48.836;10.092;2024-01-30T09:55:43;6.80;99.90
12957;DHT22;6543;48.836;10.092;2024-01-30T09:58:12;6.90;99.90
12957;DHT22;6543;48.836;10.092;2024-01-30T10:00:38;8.20;99.90
12957;DHT22;6543;48.836;10.092;2024-01-30T10:03:05;7.10;99.90
12957;DHT22;6543;48.836;10.092;2024-01-30T10:05:35;7.20;99.90
12957;DHT22;6543;48.836;10.092;2024-01-30T10:08:06;7.30;99.90
12957;DHT22;6543;48.836;10.092;2024-01-30T10:10:34;7.40;99.90
12957;DHT22;6543;48.836;10.092;2024-01-30T10:13:01;7.60;99.90
12957;DHT22;6543;48.836;10.092;2024-01-30T10:15:28;7.80;99.90
12957;DHT22;6543;48.836;10.092;2024-01-30T10:17:55;7.90;99.90
12957;DHT22;6543;48.836;10.092;2024-01-30T10:20:22;8.00;99.90
12957;DHT22;6543;48.836;10.092;2024-01-30T10:22:52;8.10;99.90
12957;DHT22;6543;48.836;10.092;2024-01-30T10:25:21;9.10;99.90
12957;DHT22;6543;48.836;10.092;2024-01-30T10:27:52;8.50;99.90
12957;DHT22;6543;48.836;10.092;2024-01-30T10:30:20;8.60;99.90
12957;DHT22;6543;48.836;10.092;2024-01-30T10:32:47;8.70;99.90
12957;DHT22;6543;48.836;10.092;2024-01-30T10:35:14;8.80;99.90
12957;DHT22;6543;48.836;10.092;2024-01-30T10:37:43;9.00;99.90
12957;DHT22;6543;48.836;10.092;2024-01-30T10:40:14;9.00;99.90
12957;DHT22;6543;48.836;10.092;2024-01-30T10:42:43;9.30;99.90
12957;DHT22;6543;48.836;10.092;2024-01-30T10:45:12;9.30;99.90
12957;DHT22;6543;48.836;10.092;2024-01-30T10:47:40;10.70;99.90
12957;DHT22;6543;48.836;10.092;2024-01-30T10:50:08;9.70;99.90
12957;DHT22;6543;48.836;10.092;2024-01-30T10:52:36;9.80;99.90
12957;DHT22;6543;48.836;10.092;2024-01-30T10:55:04;9.80;99.90
12957;DHT22;6543;48.836;10.092;2024-01-30T10:57:35;9.90;99.90
12957;DHT22;6543;48.836;10.092;2024-01-30T11:00:04;9.90;99.90
12957;DHT22;6543;48.836;10.092;2024-01-30T11:02:36;10.10;99.90
12957;DHT22;6543;48.836;10.092;2024-01-30T11:05:05;10.20;99.90
12957;DHT22;6543;48.836;10.092;2024-01-30T11:07:32;10.20;99.90
12957;DHT22;6543;48.836;10.092;2024-01-30T11:10:01;10.40;99.90
12957;DHT22;6543;48.836;10.092;2024-01-30T11:12:29;10.70;99.90
12957;DHT22;6543;48.836;10.092;2024-01-30T11:15:06;10.70;99.90
12957;DHT22;6543;48.836;10.092;2024-01-30T11:17:51;10.90;99.90
12957;DHT22;6543;48.836;10.092;2024-01-30T11:20:20;11.10;99.90
12957;DHT22;6543;48.836;10.092;2024-01-30T11:22:51;11.20;99.90
12957;DHT22;6543;48.836;10.092;2024-01-30T11:25:20;11.30;99.90
12957;DHT22;6543;48.836;10.092;2024-01-30T11:27:50;11.50;99.90
12957;DHT22;6543;48.836;10.092;2024-01-30T11:30:25;11.80;99.90
12957;DHT22;6543;48.836;10.092;2024-01-30T11:33:03;11.90;99.90
12957;DHT22;6543;48.836;10.092;2024-01-30T11:35:32;10.50;99.90
12957;DHT22;6543;48.836;10.092;2024-01-30T11:38:00;12.10;99.90
12957;DHT22;6543;48.836;10.092;2024-01-30T11:40:28;12.10;99.90
12957;DHT22;6543;48.836;10.092;2024-01-30T11:42:56;12.10;99.90
12957;DHT22;6543;48.836;10.092;2024-01-30T11:45:22;12.00;99.90
12957;DHT22;6543;48.836;10.092;2024-01-30T11:47:51;12.10;99.90
12957;DHT22;6543;48.836;10.092;2024-01-30T11:50:18;12.90;99.90
12957;DHT22;6543;48.836;10.092;2024-01-30T11:52:45;12.70;99.90
12957;DHT22;6543;48.836;10.092;2024-01-30T11:55:14;12.00;99.90
12957;DHT22;6543;48.836;10.092;2024-01-30T11:57:41;12.00;99.90
12957;DHT22;6543;48.836;10.092;2024-01-30T12:00:14;11.90;99.90
12957;DHT22;6543;48.836;10.092;2024-01-30T12:02:42;11.90;99.90
12957;DHT22;6543;48.836;10.092;2024-01-30T12:05:11;12.00;99.90
12957;DHT22;6543;48.836;10.092;2024-01-30T12:07:44;10.90;99.90
12957;DHT22;6543;48.836;10.092;2024-01-30T12:10:25;10.90;99.90
12957;DHT22;6543;48.836;10.092;2024-01-30T12:12:54;11.80;99.90
12957;DHT22;6543;48.836;10.092;2024-01-30T12:15:22;11.90;99.90
12957;DHT22;6543;48.836;10.092;2024-01-30T12:17:49;12.00;99.90
12957;DHT22;6543;48.836;10.092;2024-01-30T12:20:18;13.00;99.90
12957;DHT22;6543;48.836;10.092;2024-01-30T12:22:49;12.20;99.90
12957;DHT22;6543;48.836;10.092;2024-01-30T12:25:30;12.00;99.90
12957;DHT22;6543;48.836;10.092;2024-01-30T12:27:58;11.90;99.90
12957;DHT22;6543;48.836;10.092;2024-01-30T12:30:26;11.90;99.90
12957;DHT22;6543;48.836;10.092;2024-01-30T12:32:54;11.90;99.90
12957;DHT22;6543;48.836;10.092;2024-01-30T12:35:23;11.80;99.90
12957;DHT22;6543;48.836;10.092;2024-01-30T12:37:50;12.00;99.90
12957;DHT22;6543;48.836;10.092;2024-01-30T12:40:18;12.00;99.90
12957;DHT22;6543;48.836;10.092;2024-01-30T12:42:46;11.90;99.90
12957;DHT22;6543;48.836;10.092;2024-01-30T12:45:15;12.00;99.90
12957;DHT22;6543;48.836;10.092;2024-01-30T12:47:45;12.80;99.90
12957;DHT22;6543;48.836;10.092;2024-01-30T12:50:12;12.20;99.90
12957;DHT22;6543;48.836;10.092;2024-01-30T12:52:43;12.20;99.90
12957;DHT22;6543;48.836;10.092;2024-01-30T12:55:10;12.20;99.90
12957;DHT22;6543;48.836;10.092;2024-01-30T12:57:37;12.20;99.90
12957;DHT22;6543;48.836;10.092;2024-01-30T13:00:06;12.10;99.90
12957;DHT22;6543;48.836;10.092;2024-01-30T13:02:33;12.10;99.90
12957;DHT22;6543;48.836;10.092;2024-01-30T13:05:02;12.40;99.90
12957;DHT22;6543;48.836;10.092;2024-01-30T13:07:30;12.30;99.90
12957;DHT22;6543;48.836;10.092;2024-01-30T13:09:58;12.30;99.90
12957;DHT22;6543;48.836;10.092;2024-01-30T13:12:28;12.30;99.90
12957;DHT22;6543;48.836;10.092;2024-01-30T13:14:55;12.50;99.90
12957;DHT22;6543;48.836;10.092;2024-01-30T13:17:22;12.40;99.90
12957;DHT22;6543;48.836;10.092;2024-01-30T13:19:49;12.30;99.90
12957;DHT22;6543;48.836;10.092;2024-01-30T13:22:16;12.60;99.90
12957;DHT22;6543;48.836;10.092;2024-01-30T13:24:43;13.80;99.90
12957;DHT22;6543;48.836;10.092;2024-01-30T13:27:11;12.80;99.90
12957;DHT22;6543;48.836;10.092;2024-01-30T13:29:38;12.90;99.90
12957;DHT22;6543;48.836;10.092;2024-01-30T13:32:05;12.90;99.90
12957;DHT22;6543;48.836;10.092;2024-01-30T13:34:32;12.70;99.90
12957;DHT22;6543;48.836;10.092;2024-01-30T13:36:59;12.80;99.90
12957;DHT22;6543;48.836;10.092;2024-01-30T13:39:26;12.80;99.90
12957;DHT22;6543;48.836;10.092;2024-01-30T13:41:54;12.90;99.90
12957;DHT22;6543;48.836;10.092;2024-01-30T13:44:22;12.40;99.90
12957;DHT22;6543;48.836;10.092;2024-01-30T13:46:50;12.30;99.90
12957;DHT22;6543;48.836;10.092;2024-01-30T13:49:17;12.50;99.90
12957;DHT22;6543;48.836;10.092;2024-01-30T13:51:44;12.30;99.90
12957;DHT22;6543;48.836;10.092;2024-01-30T13:54:11;13.40;99.90
12957;DHT22;6543;48.836;10.092;2024-01-30T13:56:37;12.20;99.90
12957;DHT22;6543;48.836;10.092;2024-01-30T13:59:04;12.20;99.90
12957;DHT22;6543;48.836;10.092;2024-01-30T14:01:33;12.20;99.90
12957;DHT22;6543;48.836;10.092;2024-01-30T14:03:59;14.00;99.90
12957;DHT22;6543;48.836;10.092;2024-01-30T14:06:26;12.20;99.90
12957;DHT22;6543;48.836;10.092;2024-01-30T14:08:53;12.30;99.90
12957;DHT22;6543;48.836;10.092;2024-01-30T14:11:20;12.30;99.90
12957;DHT22;6543;48.836;10.092;2024-01-30T14:13:47;12.20;99.90
12957;DHT22;6543;48.836;10.092;2024-01-30T14:16:14;12.10;99.90
12957;DHT22;6543;48.836;10.092;2024-01-30T14:18:42;12.70;99.90
12957;DHT22;6543;48.836;10.092;2024-01-30T14:21:08;12.20;99.90
12957;DHT22;6543;48.836;10.092;2024-01-30T14:23:35;12.60;99.90
12957;DHT22;6543;48.836;10.092;2024-01-30T14:26:04;12.10;99.90
12957;DHT22;6543;48.836;10.092;2024-01-30T14:28:31;12.80;99.90
12957;DHT22;6543;48.836;10.092;2024-01-30T14:30:58;12.10;99.90
12957;DHT22;6543;48.836;10.092;2024-01-30T14:33:25;12.00;99.90
12957;DHT22;6543;48.836;10.092;2024-01-30T14:35:53;11.90;99.90
12957;DHT22;6543;48.836;10.092;2024-01-30T14:38:21;11.70;99.90
12957;DHT22;6543;48.836;10.092;2024-01-30T14:40:50;11.80;99.90
12957;DHT22;6543;48.836;10.092;2024-01-30T14:43:17;11.80;99.90
12957;DHT22;6543;48.836;10.092;2024-01-30T14:45:50;12.60;99.90
12957;DHT22;6543;48.836;10.092;2024-01-30T14:48:18;11.80;99.90
12957;DHT22;6543;48.836;10.092;2024-01-30T14:50:44;11.70;99.90
12957;DHT22;6543;48.836;10.092;2024-01-30T14:53:14;11.80;99.90
12957;DHT22;6543;48.836;10.092;2024-01-30T14:55:41;11.80;99.90
12957;DHT22;6543;48.836;10.092;2024-01-30T14:58:08;11.70;99.90
12957;DHT22;6543;48.836;10.092;2024-01-30T15:00:38;11.60;99.90
12957;DHT22;6543;48.836;10.092;2024-01-30T15:03:05;11.70;99.90
12957;DHT22;6543;48.836;10.092;2024-01-30T15:05:32;11.70;99.90
12957;DHT22;6543;48.836;10.092;2024-01-30T15:07:59;11.60;99.90
12957;DHT22;6543;48.836;10.092;2024-01-30T15:10:27;11.80;99.90
12957;DHT22;6543;48.836;10.092;2024-01-30T15:12:54;11.50;99.90
12957;DHT22;6543;48.836;10.092;2024-01-30T15:15:21;11.50;99.90
12957;DHT22;6543;48.836;10.092;2024-01-30T15:17:48;11.50;99.90
12957;DHT22;6543;48.836;10.092;2024-01-30T15:20:15;11.40;99.90
12957;DHT22;6543;48.836;10.092;2024-01-30T15:22:43;11.30;99.90
12957;DHT22;6543;48.836;10.092;2024-01-30T15:25:10;11.20;99.90
12957;DHT22;6543;48.836;10.092;2024-01-30T15:27:39;11.20;99.90
12957;DHT22;6543;48.836;10.092;2024-01-30T15:30:06;11.10;99.90
12957;DHT22;6543;48.836;10.092;2024-01-30T15:32:34;11.10;99.90
12957;DHT22;6543;48.836;10.092;2024-01-30T15:35:01;11.90;99.90
12957;DHT22;6543;48.836;10.092;2024-01-30T15:37:29;13.10;99.90
12957;DHT22;6543;48.836;10.092;2024-01-30T15:39:56;8.80;99.90
12957;DHT22;6543;48.836;10.092;2024-01-30T15:42:23;11.90;99.90
12957;DHT22;6543;48.836;10.092;2024-01-30T15:44:52;10.60;99.90